Latest Weather Observations for Alice Springs Airport

IDD60801

Issued at 9:31 am CST Monday 27 April 2015 (issued every 30 minutes, with the page automatically refreshed every 10 minutes)

About weather observations | Map of weather stations | Latest weather observations for NT | Other Formats
Station Details ID: 015590 Name: ALICE SPRINGS AIRPORT Lat: -23.80 Lon: 133.89 Height: 546.0 m
Data from the previous 72 hours. | See also: Recent months at Alice Springs Airport
Date/Time
CST
Temp
°C
App
Temp
°C
Dew
Point
Rel
Hum
%
Delta-T
°C
Wind Press
QNH
hPa
Press
MSL
hPa
Rain
since 9 am
mm
Dir
 
Spd
km/h
Gust
km/h
Spd
kts
Gust
kts
27/08:00am 11.3 10.2 4.9 65 3.0 CALM 0 0 0 0 1025.5 1023.4 0.0
27/07:30am 7.6 6.2 3.7 76 1.7 CALM 0 0 0 0 1025.1 1023.0 0.0
27/07:00am 6.9 5.4 3.2 77 1.6 CALM 0 0 0 0 1024.6 1022.4 0.0
27/06:30am 7.3 5.9 3.7 78 1.6 CALM 0 0 0 0 1024.4 1022.2 0.0
27/05:30am 7.9 6.4 3.1 72 2.1 CALM 0 0 0 0 1023.8 1021.6 0.0
27/05:00am 8.1 6.6 3.1 71 2.2 CALM 0 0 0 0 1023.4 1021.3 0.0
27/04:30am 9.0 6.2 3.4 68 2.5 ENE 7 9 4 5 1023.3 1021.1 0.0
27/04:00am 9.0 6.4 3.4 68 2.5 E 6 9 3 5 1023.3 1021.1 0.0
27/03:30am 8.6 5.8 3.4 70 2.3 SE 7 7 4 4 1023.4 1021.3 0.0
27/03:00am 8.5 5.8 3.8 72 2.1 SE 7 7 4 4 1023.5 1021.4 0.0
27/02:30am 8.9 6.2 3.5 69 2.4 SE 7 9 4 5 1023.8 1021.6 0.0
27/02:00am 10.4 8.9 3.0 60 3.3 CALM 0 7 0 4 1024.0 1021.8 0.0
27/01:30am 10.0 8.6 3.3 63 3.0 CALM 0 0 0 0 1024.1 1021.9 0.0
27/01:00am 10.0 7.3 3.5 64 2.9 S 7 7 4 4 1024.0 1021.8 0.0
27/12:30am 10.2 8.6 2.7 59 3.3 CALM 0 6 0 3 1024.0 1021.8 0.0
27/12:00am 9.6 8.1 3.0 63 2.9 CALM 0 6 0 3 1024.1 1021.9 0.0
 
Date/Time
CST
Temp
°C
App
Temp
°C
Dew
Point
Rel
Hum
%
Delta-T
°C
Wind Press
QNH
hPa
Press
MSL
hPa
Rain
since 9 am
mm
Dir
 
Spd
km/h
Gust
km/h
Spd
kts
Gust
kts
26/11:30pm 10.5 7.5 3.9 63 3.0 SSE 9 9 5 5 1024.1 1021.9 0.0
26/11:00pm 11.1 8.4 3.9 61 3.3 SSE 7 7 4 4 1024.5 1022.3 0.0
26/10:30pm 11.2 7.6 2.7 56 3.8 SSE 11 11 6 6 1024.7 1022.5 0.0
26/10:00pm 11.9 8.8 3.6 57 3.8 SSE 9 9 5 5 1024.7 1022.5 0.0
26/09:30pm 12.7 9.5 3.0 51 4.4 SE 9 9 5 5 1024.6 1022.4 0.0
26/09:00pm 12.9 9.3 3.0 51 4.5 SE 11 13 6 7 1024.4 1022.2 0.0
26/08:30pm 13.8 10.2 2.9 47 5.0 SE 11 13 6 7 1024.2 1022.0 0.0
26/08:00pm 14.5 10.9 2.7 45 5.4 SE 11 13 6 7 1023.8 1021.6 0.0
26/07:30pm 15.7 12.0 2.4 40 6.1 SE 11 13 6 7 1023.5 1021.4 0.0
26/07:00pm 17.1 12.9 1.9 36 7.0 SE 13 15 7 8 1023.2 1021.0 0.0
26/06:30pm 17.9 13.4 1.9 34 7.4 SE 15 19 8 10 1022.8 1020.6 0.0
26/06:00pm 19.0 14.0 1.5 31 8.1 SE 17 24 9 13 1022.4 1020.2 0.0
26/05:30pm 19.9 14.9 1.1 28 8.7 SE 17 28 9 15 1022.0 1019.8 0.0
26/05:00pm 20.0 14.4 1.0 28 8.8 SE 20 28 11 15 1021.6 1019.4 0.0
26/04:30pm 20.2 15.1 1.0 27 8.9 SE 17 30 9 16 1021.6 1019.4 0.0
26/04:00pm 20.8 15.2 0.0 25 9.5 SE 19 33 10 18 1021.5 1019.3 0.0
26/03:30pm 20.7 14.6 0.5 26 9.3 SSE 22 37 12 20 1021.8 1019.5 0.0
26/03:00pm 21.3 15.1 -0.1 24 9.8 SE 22 37 12 20 1021.8 1019.5 0.0
26/02:30pm 20.5 14.4 0.5 26 9.2 ESE 22 32 12 17 1021.8 1019.5 0.0
26/02:00pm 21.1 15.3 -0.2 24 9.7 SE 20 32 11 17 1022.2 1020.0 0.0
26/01:30pm 19.9 14.1 -0.3 25 9.1 ESE 20 32 11 17 1022.5 1020.3 0.0
26/01:00pm 20.0 13.8 -0.1 26 9.1 ESE 22 32 12 17 1022.9 1020.7 0.0
26/12:30pm 19.2 13.4 -0.2 27 8.7 SE 20 33 11 18 1023.4 1021.3 0.0
26/12:00pm 18.9 13.8 1.0 30 8.2 SE 17 28 9 15 1024.0 1021.8 0.0
26/11:30am 18.5 12.7 -0.1 28 8.3 ESE 20 39 11 21 1024.7 1022.5 0.0
26/11:00am 17.5 11.4 0.6 32 7.6 E 22 33 12 18 1025.2 1023.1 0.0
26/10:30am 17.6 10.8 0.7 32 7.6 ESE 26 37 14 20 1025.5 1023.4 0.0
26/10:00am 16.7 11.1 1.2 35 7.0 ESE 20 30 11 16 1025.7 1023.5 0.0
26/09:30am 16.0 10.0 1.3 37 6.6 SE 22 30 12 16 1025.7 1023.5 0.0
26/09:00am 15.1 9.7 1.2 39 6.2 SE 19 26 10 14 1025.5 1023.4 0.0
26/08:30am 11.9 9.0 1.6 49 4.5 SSE 6 13 3 7 1025.1 1023.0 0.0
26/08:00am 9.6 7.2 1.9 58 3.3 WNW 4 7 2 4 1024.8 1022.6 0.0
26/07:30am 7.0 3.8 0.6 64 2.6 WNW 7 9 4 5 1024.7 1022.5 0.0
26/07:00am 5.7 2.7 0.5 69 2.1 NW 6 7 3 4 1024.2 1022.0 0.0
26/06:30am 5.2 2.0 0.7 73 1.8 NW 7 9 4 5 1024.1 1021.9 0.0
26/06:00am 5.0 2.0 0.5 73 1.8 NNW 6 7 3 4 1023.8 1021.6 0.0
26/05:30am 5.3 2.0 0.3 70 2.0 WNW 7 9 4 5 1023.5 1021.4 0.0
26/05:00am 5.2 2.1 0.4 71 1.9 W 6 7 3 4 1023.3 1021.1 0.0
26/04:30am 5.7 1.8 1.0 72 1.9 SSW 11 13 6 7 1023.2 1021.0 0.0
26/04:00am 6.2 4.3 0.8 68 2.2 CALM 0 0 0 0 1022.8 1020.6 0.0
26/03:30am 6.5 4.6 0.6 66 2.4 CALM 0 0 0 0 1022.7 1020.5 0.0
26/03:00am 6.3 4.4 0.3 65 2.4 CALM 0 0 0 0 1022.6 1020.4 0.0
26/02:30am 7.5 4.5 1.0 63 2.7 WNW 6 7 3 4 1022.6 1020.4 0.0
26/02:00am 8.5 4.9 0.5 57 3.3 NNW 9 9 5 5 1022.8 1020.6 0.0
26/01:30am 7.9 4.8 0.3 58 3.1 NW 6 7 3 4 1022.7 1020.5 0.0
26/01:00am 7.9 5.2 0.3 58 3.1 NNW 4 9 2 5 1022.8 1020.6 0.0
26/12:30am 7.6 5.6 -0.1 58 3.1 CALM 0 0 0 0 1023.0 1020.8 0.0
26/12:00am 7.6 5.7 0.5 61 2.9 CALM 0 0 0 0 1022.9 1020.7 0.0
 
Date/Time
CST
Temp
°C
App
Temp
°C
Dew
Point
Rel
Hum
%
Delta-T
°C
Wind Press
QNH
hPa
Press
MSL
hPa
Rain
since 9 am
mm
Dir
 
Spd
km/h
Gust
km/h
Spd
kts
Gust
kts
25/11:30pm 10.5 7.7 -0.1 48 4.4 SSE 4 7 2 4 1022.9 1020.7 0.0
25/11:00pm 10.8 7.2 0.6 49 4.3 SSE 9 9 5 5 1023.1 1020.9 0.0
25/10:30pm 9.4 5.0 0.5 54 3.7 S 13 13 7 7 1023.2 1021.0 0.0
25/10:00pm 11.2 7.8 -0.3 45 4.8 S 7 9 4 5 1023.2 1021.0 0.0
25/09:30pm 11.6 8.0 0.9 48 4.6 S 9 9 5 5 1023.0 1020.8 0.0
25/09:00pm 12.6 9.3 0.2 42 5.3 SE 7 7 4 4 1022.9 1020.7 0.0
25/08:30pm 12.1 8.3 1.6 48 4.6 S 11 13 6 7 1022.6 1020.4 0.0
25/08:00pm 12.9 8.8 -0.3 40 5.6 SSE 11 13 6 7 1022.3 1020.1 0.0
25/07:30pm 14.1 9.9 -0.8 36 6.3 SSE 11 13 6 7 1021.9 1019.7 0.0
25/07:00pm 15.4 10.8 -1.0 32 7.0 SSE 13 15 7 8 1021.3 1019.1 0.0
25/06:30pm 16.7 12.0 -1.9 28 7.9 SSE 13 19 7 10 1021.0 1018.8 0.0
25/06:00pm 18.2 12.6 -2.5 24 8.8 SSE 17 22 9 12 1020.6 1018.4 0.0
25/05:30pm 19.1 13.1 -2.7 22 9.3 SSE 19 28 10 15 1020.3 1018.1 0.0
25/05:00pm 20.0 14.0 -2.8 21 9.8 SSE 19 26 10 14 1020.1 1017.8 0.0
25/04:30pm 19.5 14.0 -2.2 23 9.4 S 17 30 9 16 1019.9 1017.6 0.0
25/04:00pm 19.9 13.9 -3.1 21 9.8 S 19 30 10 16 1020.0 1017.7 0.0
25/03:30pm 20.1 14.5 -3.0 21 9.9 S 17 28 9 15 1019.9 1017.6 0.0
25/03:00pm 20.2 14.4 -1.6 23 9.6 S 19 32 10 17 1019.9 1017.6 0.0
25/02:30pm 20.3 15.5 0.1 26 9.2 SSE 15 30 8 16 1020.3 1018.1 0.0
25/02:00pm 18.7 13.6 0.7 30 8.2 S 17 30 9 16 1020.7 1018.5 0.0
25/01:30pm 19.1 13.4 0.7 29 8.4 SSW 20 44 11 24 1021.2 1019.0 0.0
25/01:00pm 18.1 12.7 1.3 32 7.7 SE 19 30 10 16 1021.8 1019.5 0.0
25/12:30pm 17.9 12.3 1.0 32 7.7 S 20 35 11 19 1022.3 1020.1 0.0
25/12:00pm 17.5 11.5 0.9 32 7.5 S 22 33 12 18 1022.9 1020.7 0.0
25/11:30am 17.3 11.6 0.6 32 7.5 SSE 20 28 11 15 1023.3 1021.1 0.0
25/11:00am 16.0 10.6 1.4 37 6.6 S 19 28 10 15 1023.8 1021.6 0.0
25/10:30am 15.8 10.2 1.0 36 6.6 S 20 28 11 15 1024.3 1022.1 0.0
25/10:00am 14.7 9.3 1.2 40 6.0 S 19 30 10 16 1024.3 1022.1 0.0
25/09:30am 14.7 9.1 1.5 40 5.9 S 20 33 11 18 1024.4 1022.2 0.0
25/09:00am 14.0 8.6 1.4 42 5.6 S 19 26 10 14 1024.3 1022.1 0.0
25/08:30am 13.0 8.4 1.4 45 5.1 S 15 22 8 12 1024.0 1021.8 0.0
25/08:00am 10.8 8.1 2.7 57 3.6 SW 6 7 3 4 1023.5 1021.4 0.0
25/07:30am 9.4 6.8 3.1 65 2.8 SSW 6 7 3 4 1023.0 1020.8 0.0
25/07:00am 8.2 4.2 2.9 69 2.3 SSW 13 15 7 8 1022.5 1020.3 0.0
25/06:30am 8.3 4.3 3.0 69 2.3 S 13 15 7 8 1022.3 1020.1 0.0
25/06:00am 9.0 5.1 3.4 68 2.5 SSW 13 15 7 8 1021.9 1019.7 0.0
25/05:30am 9.8 6.6 3.0 62 3.0 SW 9 11 5 6 1021.4 1019.2 0.0
25/05:00am 10.1 6.5 3.2 62 3.1 SSW 11 13 6 7 1021.1 1018.9 0.0
25/04:30am 11.2 8.1 3.8 60 3.4 SW 9 11 5 6 1021.0 1018.8 0.0
25/04:00am 11.5 7.6 3.3 57 3.7 SSW 13 15 7 8 1020.7 1018.5 0.0
25/03:30am 12.3 9.1 3.0 53 4.2 SW 9 11 5 6 1020.4 1018.2 0.0
25/03:00am 11.1 7.9 3.1 58 3.6 SW 9 13 5 7 1020.3 1018.1 0.0
25/02:30am 12.6 9.4 3.2 52 4.3 S 9 11 5 6 1020.2 1017.9 0.0
25/02:00am 13.8 10.2 2.9 47 5.0 SSW 11 15 6 8 1020.1 1017.8 0.0
25/01:30am 14.1 11.0 3.6 49 4.9 S 9 13 5 7 1020.0 1017.7 0.0
25/01:00am 16.1 12.1 2.8 41 6.2 SSE 13 19 7 10 1019.9 1017.6 0.0
25/12:30am 17.2 12.3 2.1 36 7.0 SSE 17 26 9 14 1019.3 1017.1 0.0
25/12:00am 15.9 11.1 0.3 34 6.9 SSW 15 19 8 10 1019.1 1016.9 0.0
 
Date/Time
CST
Temp
°C
App
Temp
°C
Dew
Point
Rel
Hum
%
Delta-T
°C
Wind Press
QNH
hPa
Press
MSL
hPa
Rain
since 9 am
mm
Dir
 
Spd
km/h
Gust
km/h
Spd
kts
Gust
kts
24/11:30pm 12.3 9.2 3.6 55 4.0 W 9 11 5 6 1019.1 1016.9 0.0
24/11:00pm 13.6 12.1 2.9 48 4.9 CALM 0 0 0 0 1018.9 1016.7 0.0
24/10:30pm 14.3 12.7 2.2 44 5.5 CALM 0 0 0 0 1018.9 1016.7 0.0
24/10:00pm 15.2 13.1 2.0 41 6.0 S 2 6 1 3 1018.8 1016.6 0.0
24/09:30pm 15.9 12.6 2.5 40 6.2 S 9 11 5 6 1018.6 1016.4 0.0
24/09:00pm 16.5 12.8 2.2 38 6.6 S 11 13 6 7 1018.5 1016.2 0.0
24/08:30pm 18.1 14.1 0.7 31 7.9 S 11 11 6 6 1018.2 1015.9 0.0
24/08:00pm 18.1 15.1 4.1 39 6.8 S 9 11 5 6 1017.9 1015.6 0.0
24/07:30pm 19.0 15.4 0.9 29 8.3 S 9 9 5 5 1017.3 1015.1 0.0
24/07:00pm 19.3 15.8 1.1 29 8.4 S 9 11 5 6 1016.8 1014.5 0.0
24/06:30pm 21.0 16.5 -0.6 23 9.8 SSW 13 17 7 9 1016.4 1014.1 0.0
24/06:00pm 23.2 18.3 -3.2 17 11.6 S 13 20 7 11 1016.1 1013.8 0.0
24/05:30pm 24.4 18.1 -4.4 14 12.5 S 20 30 11 16 1015.7 1013.5 0.0
24/05:00pm 25.0 18.2 -5.3 13 13.0 S 22 33 12 18 1015.5 1013.3 0.0
24/04:30pm 24.9 18.2 -4.6 14 12.8 SSW 22 32 12 17 1015.4 1013.2 0.0
24/04:00pm 25.5 18.8 -4.4 13 13.1 S 22 33 12 18 1015.3 1013.1 0.0
24/03:30pm 25.8 19.5 -4.1 13 13.2 S 20 32 11 17 1015.3 1013.1 0.0
24/03:00pm 25.2 18.2 -3.8 14 12.8 SSW 24 37 13 20 1015.4 1013.2 0.0
24/02:30pm 25.1 19.2 -2.2 16 12.4 SSW 19 33 10 18 1015.5 1013.3 0.0
24/02:00pm 25.5 18.6 -3.0 15 12.8 S 24 35 13 19 1015.7 1013.5 0.0
24/01:30pm 25.6 19.4 -3.2 14 12.9 SSW 20 32 11 17 1016.0 1013.7 0.0
24/01:00pm 23.9 18.0 -2.4 17 11.8 S 19 30 10 16 1016.6 1014.3 0.0
24/12:30pm 24.1 18.4 -3.8 15 12.2 S 17 30 9 16 1017.0 1014.8 0.0
24/12:00pm 22.9 17.3 -3.1 17 11.4 SSE 17 30 9 16 1017.6 1015.4 0.0
24/11:30am 23.3 17.3 -1.7 19 11.3 SSW 20 28 11 15 1018.2 1015.9 0.0
24/11:00am 23.1 16.7 -1.8 19 11.2 S 22 33 12 18 1018.7 1016.5 0.0
24/10:30am 22.9 17.4 -2.2 18 11.2 S 17 24 9 13 1018.9 1016.7 0.0
24/10:00am 22.0 17.2 0.2 23 10.1 SSW 15 20 8 11 1019.0 1016.8 0.0

Other Formats:

Comma delimited format used in spreadsheet applications
http://www.bom.gov.au/fwo/IDD60801/IDD60801.94326.axf

JavaScript Object Notation format (JSON) in row-major order
http://www.bom.gov.au/fwo/IDD60801/IDD60801.94326.json